sensor_id;sensor_type;location;lat;lon;timestamp;temperature;humidity
18160;DHT22;9205;52.032;4.314;2023-09-08T00:00:47;21.40;1.00
18160;DHT22;9205;52.032;4.314;2023-09-08T00:03:14;21.30;1.00
18160;DHT22;9205;52.032;4.314;2023-09-08T00:05:42;21.30;1.00
18160;DHT22;9205;52.032;4.314;2023-09-08T00:08:09;21.30;1.00
18160;DHT22;9205;52.032;4.314;2023-09-08T00:10:36;21.30;1.00
18160;DHT22;9205;52.032;4.314;2023-09-08T00:13:05;21.30;1.00
18160;DHT22;9205;52.032;4.314;2023-09-08T00:15:33;21.20;1.00
18160;DHT22;9205;52.032;4.314;2023-09-08T00:18:01;21.20;1.00
18160;DHT22;9205;52.032;4.314;2023-09-08T00:20:28;21.10;1.00
18160;DHT22;9205;52.032;4.314;2023-09-08T00:22:56;21.10;1.00
18160;DHT22;9205;52.032;4.314;2023-09-08T00:25:23;21.10;1.00
18160;DHT22;9205;52.032;4.314;2023-09-08T00:27:50;21.20;1.00
18160;DHT22;9205;52.032;4.314;2023-09-08T00:30:19;21.10;1.00
18160;DHT22;9205;52.032;4.314;2023-09-08T00:32:46;21.10;1.00
18160;DHT22;9205;52.032;4.314;2023-09-08T00:35:13;21.10;1.00
18160;DHT22;9205;52.032;4.314;2023-09-08T00:37:40;21.10;1.00
18160;DHT22;9205;52.032;4.314;2023-09-08T00:40:08;21.10;1.00
18160;DHT22;9205;52.032;4.314;2023-09-08T00:42:36;21.10;1.00
18160;DHT22;9205;52.032;4.314;2023-09-08T00:45:04;21.10;1.00
18160;DHT22;9205;52.032;4.314;2023-09-08T00:47:33;21.00;1.00
18160;DHT22;9205;52.032;4.314;2023-09-08T00:50:01;21.00;1.00
18160;DHT22;9205;52.032;4.314;2023-09-08T00:52:30;21.00;1.00
18160;DHT22;9205;52.032;4.314;2023-09-08T00:54:59;20.90;1.00
18160;DHT22;9205;52.032;4.314;2023-09-08T00:57:27;20.90;1.00
18160;DHT22;9205;52.032;4.314;2023-09-08T00:59:54;20.80;1.00
18160;DHT22;9205;52.032;4.314;2023-09-08T01:02:21;20.80;1.00
18160;DHT22;9205;52.032;4.314;2023-09-08T01:04:50;20.80;1.00
18160;DHT22;9205;52.032;4.314;2023-09-08T01:07:19;20.80;1.00
18160;DHT22;9205;52.032;4.314;2023-09-08T01:09:47;20.70;1.00
18160;DHT22;9205;52.032;4.314;2023-09-08T01:12:15;20.70;1.00
18160;DHT22;9205;52.032;4.314;2023-09-08T01:14:42;20.60;1.00
18160;DHT22;9205;52.032;4.314;2023-09-08T01:17:10;20.60;1.00
18160;DHT22;9205;52.032;4.314;2023-09-08T01:19:38;20.60;1.00
18160;DHT22;9205;52.032;4.314;2023-09-08T01:22:24;20.50;1.00
18160;DHT22;9205;52.032;4.314;2023-09-08T01:25:13;20.60;1.00
18160;DHT22;9205;52.032;4.314;2023-09-08T01:27:47;20.60;1.00
18160;DHT22;9205;52.032;4.314;2023-09-08T01:30:18;20.50;1.00
18160;DHT22;9205;52.032;4.314;2023-09-08T01:32:46;20.50;1.00
18160;DHT22;9205;52.032;4.314;2023-09-08T01:35:13;20.40;1.00
18160;DHT22;9205;52.032;4.314;2023-09-08T01:37:42;20.40;1.00
18160;DHT22;9205;52.032;4.314;2023-09-08T01:40:13;20.40;1.00
18160;DHT22;9205;52.032;4.314;2023-09-08T01:42:41;20.40;1.00
18160;DHT22;9205;52.032;4.314;2023-09-08T01:45:09;20.30;1.00
18160;DHT22;9205;52.032;4.314;2023-09-08T01:47:37;20.40;1.00
18160;DHT22;9205;52.032;4.314;2023-09-08T01:50:05;20.30;1.00
18160;DHT22;9205;52.032;4.314;2023-09-08T01:52:33;20.30;1.00
18160;DHT22;9205;52.032;4.314;2023-09-08T01:55:01;20.30;1.00
18160;DHT22;9205;52.032;4.314;2023-09-08T01:57:29;20.40;1.00
18160;DHT22;9205;52.032;4.314;2023-09-08T01:59:57;20.20;1.00
18160;DHT22;9205;52.032;4.314;2023-09-08T02:02:24;20.20;1.00
18160;DHT22;9205;52.032;4.314;2023-09-08T02:04:52;20.20;1.00
18160;DHT22;9205;52.032;4.314;2023-09-08T02:07:20;20.30;1.00
18160;DHT22;9205;52.032;4.314;2023-09-08T02:09:51;20.20;1.00
18160;DHT22;9205;52.032;4.314;2023-09-08T02:12:19;20.20;1.00
18160;DHT22;9205;52.032;4.314;2023-09-08T02:14:47;20.10;1.00
18160;DHT22;9205;52.032;4.314;2023-09-08T02:17:15;20.10;1.00
18160;DHT22;9205;52.032;4.314;2023-09-08T02:19:44;20.10;1.00
18160;DHT22;9205;52.032;4.314;2023-09-08T02:22:11;20.10;1.00
18160;DHT22;9205;52.032;4.314;2023-09-08T02:24:38;20.10;1.00
18160;DHT22;9205;52.032;4.314;2023-09-08T02:27:05;20.20;1.00
18160;DHT22;9205;52.032;4.314;2023-09-08T02:29:33;20.20;1.00
18160;DHT22;9205;52.032;4.314;2023-09-08T02:32:02;20.20;1.00
18160;DHT22;9205;52.032;4.314;2023-09-08T02:34:30;20.20;1.00
18160;DHT22;9205;52.032;4.314;2023-09-08T02:37:03;20.20;1.00
18160;DHT22;9205;52.032;4.314;2023-09-08T02:39:31;20.10;1.00
18160;DHT22;9205;52.032;4.314;2023-09-08T02:41:59;20.10;1.00
18160;DHT22;9205;52.032;4.314;2023-09-08T02:44:27;20.20;1.00
18160;DHT22;9205;52.032;4.314;2023-09-08T02:46:55;20.10;1.00
18160;DHT22;9205;52.032;4.314;2023-09-08T02:49:25;20.00;1.00
18160;DHT22;9205;52.032;4.314;2023-09-08T02:51:53;20.00;1.00
18160;DHT22;9205;52.032;4.314;2023-09-08T02:54:20;20.10;1.00
18160;DHT22;9205;52.032;4.314;2023-09-08T02:56:47;20.10;1.00
18160;DHT22;9205;52.032;4.314;2023-09-08T02:59:14;20.00;1.00
18160;DHT22;9205;52.032;4.314;2023-09-08T03:01:42;20.00;1.00
18160;DHT22;9205;52.032;4.314;2023-09-08T03:04:09;19.90;4.90
18160;DHT22;9205;52.032;4.314;2023-09-08T03:06:38;20.00;4.60
18160;DHT22;9205;52.032;4.314;2023-09-08T03:09:05;19.80;8.50
18160;DHT22;9205;52.032;4.314;2023-09-08T03:11:32;19.90;15.10
18160;DHT22;9205;52.032;4.314;2023-09-08T03:13:59;19.90;17.80
18160;DHT22;9205;52.032;4.314;2023-09-08T03:16:27;19.90;22.70
18160;DHT22;9205;52.032;4.314;2023-09-08T03:18:54;19.90;35.90
18160;DHT22;9205;52.032;4.314;2023-09-08T03:21:21;19.90;49.00
18160;DHT22;9205;52.032;4.314;2023-09-08T03:23:49;19.90;48.90
18160;DHT22;9205;52.032;4.314;2023-09-08T03:26:17;19.80;43.70
18160;DHT22;9205;52.032;4.314;2023-09-08T03:28:44;19.80;49.70
18160;DHT22;9205;52.032;4.314;2023-09-08T03:31:11;19.80;59.70
18160;DHT22;9205;52.032;4.314;2023-09-08T03:33:38;19.70;66.50
18160;DHT22;9205;52.032;4.314;2023-09-08T03:36:07;19.70;85.10
18160;DHT22;9205;52.032;4.314;2023-09-08T03:38:35;19.60;97.50
18160;DHT22;9205;52.032;4.314;2023-09-08T03:41:06;19.70;99.90
18160;DHT22;9205;52.032;4.314;2023-09-08T03:43:34;19.60;99.90
18160;DHT22;9205;52.032;4.314;2023-09-08T03:46:01;19.50;99.90
18160;DHT22;9205;52.032;4.314;2023-09-08T03:48:28;19.50;99.90
18160;DHT22;9205;52.032;4.314;2023-09-08T03:50:55;19.50;99.90
18160;DHT22;9205;52.032;4.314;2023-09-08T03:53:23;19.40;99.90
18160;DHT22;9205;52.032;4.314;2023-09-08T03:55:50;19.50;99.90
18160;DHT22;9205;52.032;4.314;2023-09-08T03:58:19;19.40;99.90
18160;DHT22;9205;52.032;4.314;2023-09-08T04:00:47;19.40;99.90
18160;DHT22;9205;52.032;4.314;2023-09-08T04:03:14;19.40;99.90
18160;DHT22;9205;52.032;4.314;2023-09-08T04:05:41;19.30;99.90
18160;DHT22;9205;52.032;4.314;2023-09-08T04:08:09;19.40;99.90
18160;DHT22;9205;52.032;4.314;2023-09-08T04:10:36;19.20;99.90
18160;DHT22;9205;52.032;4.314;2023-09-08T04:13:04;19.30;99.90
18160;DHT22;9205;52.032;4.314;2023-09-08T04:15:33;19.40;99.90
18160;DHT22;9205;52.032;4.314;2023-09-08T04:18:01;19.30;99.90
18160;DHT22;9205;52.032;4.314;2023-09-08T04:20:28;19.40;99.90
18160;DHT22;9205;52.032;4.314;2023-09-08T04:22:55;19.40;99.90
18160;DHT22;9205;52.032;4.314;2023-09-08T04:25:22;19.30;99.90
18160;DHT22;9205;52.032;4.314;2023-09-08T04:27:50;19.30;99.90
18160;DHT22;9205;52.032;4.314;2023-09-08T04:30:18;19.30;99.90
18160;DHT22;9205;52.032;4.314;2023-09-08T04:32:46;19.40;99.90
18160;DHT22;9205;52.032;4.314;2023-09-08T04:35:13;19.30;99.90
18160;DHT22;9205;52.032;4.314;2023-09-08T04:37:41;19.20;99.90
18160;DHT22;9205;52.032;4.314;2023-09-08T04:40:08;19.10;99.90
18160;DHT22;9205;52.032;4.314;2023-09-08T04:42:36;19.20;99.90
18160;DHT22;9205;52.032;4.314;2023-09-08T04:45:05;19.20;99.90
18160;DHT22;9205;52.032;4.314;2023-09-08T04:47:35;19.20;99.90
18160;DHT22;9205;52.032;4.314;2023-09-08T04:50:05;19.20;99.90
18160;DHT22;9205;52.032;4.314;2023-09-08T04:52:33;19.10;99.90
18160;DHT22;9205;52.032;4.314;2023-09-08T04:55:02;19.20;99.90
18160;DHT22;9205;52.032;4.314;2023-09-08T04:57:30;19.20;99.90
18160;DHT22;9205;52.032;4.314;2023-09-08T04:59:58;19.20;99.90
18160;DHT22;9205;52.032;4.314;2023-09-08T05:02:25;19.00;99.90
18160;DHT22;9205;52.032;4.314;2023-09-08T05:04:52;19.10;99.90
18160;DHT22;9205;52.032;4.314;2023-09-08T05:07:22;19.10;99.90
18160;DHT22;9205;52.032;4.314;2023-09-08T05:09:50;19.00;99.90
18160;DHT22;9205;52.032;4.314;2023-09-08T05:12:18;19.00;99.90
18160;DHT22;9205;52.032;4.314;2023-09-08T05:14:45;19.00;99.90
18160;DHT22;9205;52.032;4.314;2023-09-08T05:17:12;19.00;99.90
18160;DHT22;9205;52.032;4.314;2023-09-08T05:19:39;19.00;99.90
18160;DHT22;9205;52.032;4.314;2023-09-08T05:22:06;19.00;99.90
18160;DHT22;9205;52.032;4.314;2023-09-08T05:24:35;19.00;99.90
18160;DHT22;9205;52.032;4.314;2023-09-08T05:27:03;18.90;99.90
18160;DHT22;9205;52.032;4.314;2023-09-08T05:29:31;19.00;99.90
18160;DHT22;9205;52.032;4.314;2023-09-08T05:31:58;19.10;99.90
18160;DHT22;9205;52.032;4.314;2023-09-08T05:34:26;18.90;99.90
18160;DHT22;9205;52.032;4.314;2023-09-08T05:36:53;19.00;99.90
18160;DHT22;9205;52.032;4.314;2023-09-08T05:39:20;19.00;99.90
18160;DHT22;9205;52.032;4.314;2023-09-08T05:41:48;18.90;99.90
18160;DHT22;9205;52.032;4.314;2023-09-08T05:44:16;19.00;99.90
18160;DHT22;9205;52.032;4.314;2023-09-08T05:46:43;19.10;99.90
18160;DHT22;9205;52.032;4.314;2023-09-08T05:49:11;19.00;99.90
18160;DHT22;9205;52.032;4.314;2023-09-08T05:51:40;19.00;99.90
18160;DHT22;9205;52.032;4.314;2023-09-08T05:54:07;19.10;99.90
18160;DHT22;9205;52.032;4.314;2023-09-08T05:56:37;19.10;99.90
18160;DHT22;9205;52.032;4.314;2023-09-08T05:59:06;19.10;99.90
18160;DHT22;9205;52.032;4.314;2023-09-08T06:01:34;19.10;99.90
18160;DHT22;9205;52.032;4.314;2023-09-08T06:04:06;19.20;99.90
18160;DHT22;9205;52.032;4.314;2023-09-08T06:06:33;19.20;99.90
18160;DHT22;9205;52.032;4.314;2023-09-08T06:09:01;19.20;99.90
18160;DHT22;9205;52.032;4.314;2023-09-08T06:11:29;19.20;99.90
18160;DHT22;9205;52.032;4.314;2023-09-08T06:13:56;19.30;99.90
18160;DHT22;9205;52.032;4.314;2023-09-08T06:16:27;19.30;99.90
18160;DHT22;9205;52.032;4.314;2023-09-08T06:18:55;19.40;99.90
18160;DHT22;9205;52.032;4.314;2023-09-08T06:21:23;19.30;99.90
18160;DHT22;9205;52.032;4.314;2023-09-08T06:23:50;19.40;99.90
18160;DHT22;9205;52.032;4.314;2023-09-08T06:26:18;19.50;99.90
18160;DHT22;9205;52.032;4.314;2023-09-08T06:28:48;19.50;99.90
18160;DHT22;9205;52.032;4.314;2023-09-08T06:31:15;19.50;99.90
18160;DHT22;9205;52.032;4.314;2023-09-08T06:33:44;19.50;99.90
18160;DHT22;9205;52.032;4.314;2023-09-08T06:36:12;19.60;99.90
18160;DHT22;9205;52.032;4.314;2023-09-08T06:38:39;19.60;99.90
18160;DHT22;9205;52.032;4.314;2023-09-08T06:41:10;19.70;99.90
18160;DHT22;9205;52.032;4.314;2023-09-08T06:43:38;19.70;99.90
18160;DHT22;9205;52.032;4.314;2023-09-08T06:46:12;19.80;99.90
18160;DHT22;9205;52.032;4.314;2023-09-08T06:48:40;19.80;99.90
18160;DHT22;9205;52.032;4.314;2023-09-08T06:51:08;19.90;99.90
18160;DHT22;9205;52.032;4.314;2023-09-08T06:53:38;19.80;99.90
18160;DHT22;9205;52.032;4.314;2023-09-08T06:56:06;19.90;99.90
18160;DHT22;9205;52.032;4.314;2023-09-08T06:58:33;19.90;99.90
18160;DHT22;9205;52.032;4.314;2023-09-08T07:01:00;20.00;99.90
18160;DHT22;9205;52.032;4.314;2023-09-08T07:03:28;20.10;99.90
18160;DHT22;9205;52.032;4.314;2023-09-08T07:06:03;20.10;99.90
18160;DHT22;9205;52.032;4.314;2023-09-08T07:08:31;20.20;99.90
18160;DHT22;9205;52.032;4.314;2023-09-08T07:10:59;20.30;99.90
18160;DHT22;9205;52.032;4.314;2023-09-08T07:13:26;20.30;99.90
18160;DHT22;9205;52.032;4.314;2023-09-08T07:15:53;20.30;99.90
18160;DHT22;9205;52.032;4.314;2023-09-08T07:18:21;20.40;99.90
18160;DHT22;9205;52.032;4.314;2023-09-08T07:20:49;20.50;99.90
18160;DHT22;9205;52.032;4.314;2023-09-08T07:23:18;20.70;99.90
18160;DHT22;9205;52.032;4.314;2023-09-08T07:25:47;20.70;99.90
18160;DHT22;9205;52.032;4.314;2023-09-08T07:28:16;20.70;99.90
18160;DHT22;9205;52.032;4.314;2023-09-08T07:30:44;20.70;99.90
18160;DHT22;9205;52.032;4.314;2023-09-08T07:33:12;20.90;99.90
18160;DHT22;9205;52.032;4.314;2023-09-08T07:35:40;20.80;99.90
18160;DHT22;9205;52.032;4.314;2023-09-08T07:38:08;20.90;99.90
18160;DHT22;9205;52.032;4.314;2023-09-08T07:40:35;21.00;99.90
18160;DHT22;9205;52.032;4.314;2023-09-08T07:43:04;21.00;99.90
18160;DHT22;9205;52.032;4.314;2023-09-08T07:45:31;21.20;99.90
18160;DHT22;9205;52.032;4.314;2023-09-08T07:47:58;21.20;99.90
18160;DHT22;9205;52.032;4.314;2023-09-08T07:50:28;21.20;99.90
18160;DHT22;9205;52.032;4.314;2023-09-08T07:52:56;21.40;99.90
18160;DHT22;9205;52.032;4.314;2023-09-08T07:55:24;21.50;99.90
18160;DHT22;9205;52.032;4.314;2023-09-08T07:57:53;21.60;99.90
18160;DHT22;9205;52.032;4.314;2023-09-08T08:00:22;21.50;99.90
18160;DHT22;9205;52.032;4.314;2023-09-08T08:02:54;21.60;99.90
18160;DHT22;9205;52.032;4.314;2023-09-08T08:05:22;21.80;99.90
18160;DHT22;9205;52.032;4.314;2023-09-08T08:07:50;21.90;99.90
18160;DHT22;9205;52.032;4.314;2023-09-08T08:10:18;21.90;99.90
18160;DHT22;9205;52.032;4.314;2023-09-08T08:12:46;22.10;99.90
18160;DHT22;9205;52.032;4.314;2023-09-08T08:15:13;22.20;99.90
18160;DHT22;9205;52.032;4.314;2023-09-08T08:17:42;22.30;99.90
18160;DHT22;9205;52.032;4.314;2023-09-08T08:20:10;22.30;99.90
18160;DHT22;9205;52.032;4.314;2023-09-08T08:22:43;22.40;95.80
18160;DHT22;9205;52.032;4.314;2023-09-08T08:25:11;22.30;96.00
18160;DHT22;9205;52.032;4.314;2023-09-08T08:27:39;22.50;99.90
18160;DHT22;9205;52.032;4.314;2023-09-08T08:30:08;22.50;99.00
18160;DHT22;9205;52.032;4.314;2023-09-08T08:32:37;22.60;93.20
18160;DHT22;9205;52.032;4.314;2023-09-08T08:35:06;22.50;90.70
18160;DHT22;9205;52.032;4.314;2023-09-08T08:37:33;22.60;99.90
18160;DHT22;9205;52.032;4.314;2023-09-08T08:40:00;22.70;99.90
18160;DHT22;9205;52.032;4.314;2023-09-08T08:42:31;22.90;96.10
18160;DHT22;9205;52.032;4.314;2023-09-08T08:44:59;22.80;91.90
18160;DHT22;9205;52.032;4.314;2023-09-08T08:47:27;23.00;75.50
18160;DHT22;9205;52.032;4.314;2023-09-08T08:49:56;23.10;60.00
18160;DHT22;9205;52.032;4.314;2023-09-08T08:52:50;23.10;49.60
18160;DHT22;9205;52.032;4.314;2023-09-08T08:59:41;23.30;1.40
18160;DHT22;9205;52.032;4.314;2023-09-08T09:07:03;23.60;1.00
18160;DHT22;9205;52.032;4.314;2023-09-08T09:18:15;24.10;1.00
18160;DHT22;9205;52.032;4.314;2023-09-08T09:20:53;24.10;1.00
18160;DHT22;9205;52.032;4.314;2023-09-08T09:23:28;24.10;1.00
18160;DHT22;9205;52.032;4.314;2023-09-08T09:25:56;24.20;1.00
18160;DHT22;9205;52.032;4.314;2023-09-08T09:28:24;24.30;1.00
18160;DHT22;9205;52.032;4.314;2023-09-08T09:30:52;24.40;1.00
18160;DHT22;9205;52.032;4.314;2023-09-08T09:33:25;24.40;1.00
18160;DHT22;9205;52.032;4.314;2023-09-08T09:35:53;24.50;1.00
18160;DHT22;9205;52.032;4.314;2023-09-08T09:38:21;24.70;1.00
18160;DHT22;9205;52.032;4.314;2023-09-08T09:40:53;24.80;1.00
18160;DHT22;9205;52.032;4.314;2023-09-08T09:43:21;24.90;1.00
18160;DHT22;9205;52.032;4.314;2023-09-08T09:45:49;24.90;1.00
18160;DHT22;9205;52.032;4.314;2023-09-08T09:48:19;24.90;1.00
18160;DHT22;9205;52.032;4.314;2023-09-08T09:50:50;24.90;1.00
18160;DHT22;9205;52.032;4.314;2023-09-08T09:53:17;25.00;1.00
18160;DHT22;9205;52.032;4.314;2023-09-08T09:55:45;25.00;1.00
18160;DHT22;9205;52.032;4.314;2023-09-08T09:58:12;25.10;1.00
18160;DHT22;9205;52.032;4.314;2023-09-08T10:00:41;25.10;1.00
18160;DHT22;9205;52.032;4.314;2023-09-08T10:03:13;25.20;1.00
18160;DHT22;9205;52.032;4.314;2023-09-08T10:05:41;25.30;1.00
18160;DHT22;9205;52.032;4.314;2023-09-08T10:08:10;25.40;1.00
18160;DHT22;9205;52.032;4.314;2023-09-08T10:10:37;25.50;1.00
18160;DHT22;9205;52.032;4.314;2023-09-08T10:13:10;25.60;1.00
18160;DHT22;9205;52.032;4.314;2023-09-08T10:15:40;25.70;1.00
18160;DHT22;9205;52.032;4.314;2023-09-08T10:18:09;25.70;1.00
18160;DHT22;9205;52.032;4.314;2023-09-08T10:20:41;25.90;1.00
18160;DHT22;9205;52.032;4.314;2023-09-08T10:23:18;25.90;99.90
18160;DHT22;9205;52.032;4.314;2023-09-08T10:25:53;25.90;1.00
18160;DHT22;9205;52.032;4.314;2023-09-08T10:28:24;26.10;99.90
18160;DHT22;9205;52.032;4.314;2023-09-08T10:30:52;26.10;99.90
18160;DHT22;9205;52.032;4.314;2023-09-08T10:33:20;26.20;99.90
18160;DHT22;9205;52.032;4.314;2023-09-08T10:35:49;26.20;99.90
18160;DHT22;9205;52.032;4.314;2023-09-08T10:38:29;26.10;99.90
18160;DHT22;9205;52.032;4.314;2023-09-08T10:41:26;26.20;99.90
18160;DHT22;9205;52.032;4.314;2023-09-08T10:43:55;26.20;99.90
18160;DHT22;9205;52.032;4.314;2023-09-08T10:46:27;26.30;99.90
18160;DHT22;9205;52.032;4.314;2023-09-08T10:49:01;26.40;99.90
18160;DHT22;9205;52.032;4.314;2023-09-08T10:51:30;26.60;99.90
18160;DHT22;9205;52.032;4.314;2023-09-08T10:53:59;26.50;99.90
18160;DHT22;9205;52.032;4.314;2023-09-08T10:56:47;26.70;99.90
18160;DHT22;9205;52.032;4.314;2023-09-08T10:59:21;26.70;99.90
18160;DHT22;9205;52.032;4.314;2023-09-08T11:01:54;26.80;99.90
18160;DHT22;9205;52.032;4.314;2023-09-08T11:04:23;26.90;99.90
18160;DHT22;9205;52.032;4.314;2023-09-08T11:06:51;26.90;99.90
18160;DHT22;9205;52.032;4.314;2023-09-08T11:09:20;27.10;1.00
18160;DHT22;9205;52.032;4.314;2023-09-08T11:11:49;27.20;1.00
18160;DHT22;9205;52.032;4.314;2023-09-08T11:14:17;27.20;1.00
18160;DHT22;9205;52.032;4.314;2023-09-08T11:16:44;27.40;1.00
18160;DHT22;9205;52.032;4.314;2023-09-08T11:19:12;27.50;1.00
18160;DHT22;9205;52.032;4.314;2023-09-08T11:21:39;27.70;1.00
18160;DHT22;9205;52.032;4.314;2023-09-08T11:24:07;27.90;1.00
18160;DHT22;9205;52.032;4.314;2023-09-08T11:26:37;27.80;1.00
18160;DHT22;9205;52.032;4.314;2023-09-08T11:29:05;28.10;1.00
18160;DHT22;9205;52.032;4.314;2023-09-08T11:31:33;28.60;99.90
18160;DHT22;9205;52.032;4.314;2023-09-08T11:34:00;28.70;1.00
18160;DHT22;9205;52.032;4.314;2023-09-08T11:36:29;28.60;1.00
18160;DHT22;9205;52.032;4.314;2023-09-08T11:38:56;28.70;1.00
18160;DHT22;9205;52.032;4.314;2023-09-08T11:41:24;28.60;1.00
18160;DHT22;9205;52.032;4.314;2023-09-08T11:43:52;28.60;1.00
18160;DHT22;9205;52.032;4.314;2023-09-08T11:46:21;28.70;1.00
18160;DHT22;9205;52.032;4.314;2023-09-08T11:48:48;28.50;1.00
18160;DHT22;9205;52.032;4.314;2023-09-08T11:51:15;28.40;18.30
18160;DHT22;9205;52.032;4.314;2023-09-08T11:53:43;28.60;1.00
18160;DHT22;9205;52.032;4.314;2023-09-08T11:56:12;28.70;1.00
18160;DHT22;9205;52.032;4.314;2023-09-08T11:58:39;28.60;1.00
18160;DHT22;9205;52.032;4.314;2023-09-08T12:01:10;28.80;1.00
18160;DHT22;9205;52.032;4.314;2023-09-08T12:03:51;28.70;1.00
18160;DHT22;9205;52.032;4.314;2023-09-08T12:06:19;28.90;1.00
18160;DHT22;9205;52.032;4.314;2023-09-08T12:08:46;28.80;99.90
18160;DHT22;9205;52.032;4.314;2023-09-08T12:11:13;28.90;99.90
18160;DHT22;9205;52.032;4.314;2023-09-08T12:13:40;29.10;99.90
18160;DHT22;9205;52.032;4.314;2023-09-08T12:16:19;29.30;99.90
18160;DHT22;9205;52.032;4.314;2023-09-08T12:18:49;29.30;1.00
18160;DHT22;9205;52.032;4.314;2023-09-08T12:21:16;29.20;99.90
18160;DHT22;9205;52.032;4.314;2023-09-08T12:23:47;29.20;99.90
18160;DHT22;9205;52.032;4.314;2023-09-08T12:26:15;29.20;1.00
18160;DHT22;9205;52.032;4.314;2023-09-08T12:28:43;29.40;99.90
18160;DHT22;9205;52.032;4.314;2023-09-08T12:31:13;29.40;1.00
18160;DHT22;9205;52.032;4.314;2023-09-08T12:33:43;29.50;1.00
18160;DHT22;9205;52.032;4.314;2023-09-08T12:36:12;29.30;99.90
18160;DHT22;9205;52.032;4.314;2023-09-08T12:38:40;29.30;99.90
18160;DHT22;9205;52.032;4.314;2023-09-08T12:41:07;29.40;99.90
18160;DHT22;9205;52.032;4.314;2023-09-08T12:43:35;29.50;1.00
18160;DHT22;9205;52.032;4.314;2023-09-08T12:46:02;29.50;1.00
18160;DHT22;9205;52.032;4.314;2023-09-08T12:48:29;29.70;1.00
18160;DHT22;9205;52.032;4.314;2023-09-08T12:50:58;29.50;1.00
18160;DHT22;9205;52.032;4.314;2023-09-08T12:53:25;29.50;1.00
18160;DHT22;9205;52.032;4.314;2023-09-08T12:55:53;29.40;1.00
18160;DHT22;9205;52.032;4.314;2023-09-08T12:58:20;29.60;1.00
18160;DHT22;9205;52.032;4.314;2023-09-08T13:00:48;29.50;1.00
18160;DHT22;9205;52.032;4.314;2023-09-08T13:03:15;29.70;1.00
18160;DHT22;9205;52.032;4.314;2023-09-08T13:05:43;29.90;1.00
18160;DHT22;9205;52.032;4.314;2023-09-08T13:08:11;29.90;1.00
18160;DHT22;9205;52.032;4.314;2023-09-08T13:10:41;30.10;99.90
18160;DHT22;9205;52.032;4.314;2023-09-08T13:13:08;30.10;1.00
18160;DHT22;9205;52.032;4.314;2023-09-08T13:15:35;30.00;99.90
18160;DHT22;9205;52.032;4.314;2023-09-08T13:18:03;30.00;99.90
18160;DHT22;9205;52.032;4.314;2023-09-08T13:20:31;30.10;24.50
18160;DHT22;9205;52.032;4.314;2023-09-08T13:22:58;30.10;1.00
18160;DHT22;9205;52.032;4.314;2023-09-08T13:25:27;30.10;1.00
18160;DHT22;9205;52.032;4.314;2023-09-08T13:27:55;30.00;1.00
18160;DHT22;9205;52.032;4.314;2023-09-08T13:30:22;29.90;1.00
18160;DHT22;9205;52.032;4.314;2023-09-08T13:32:52;30.10;1.00
18160;DHT22;9205;52.032;4.314;2023-09-08T13:35:21;30.10;48.30
18160;DHT22;9205;52.032;4.314;2023-09-08T13:37:49;30.10;1.00
18160;DHT22;9205;52.032;4.314;2023-09-08T13:40:16;30.10;1.00
18160;DHT22;9205;52.032;4.314;2023-09-08T13:42:44;30.40;7.80
18160;DHT22;9205;52.032;4.314;2023-09-08T13:45:12;30.50;1.00
18160;DHT22;9205;52.032;4.314;2023-09-08T13:47:40;30.60;1.00
18160;DHT22;9205;52.032;4.314;2023-09-08T13:50:08;30.40;1.00
18160;DHT22;9205;52.032;4.314;2023-09-08T13:52:36;30.50;1.00
18160;DHT22;9205;52.032;4.314;2023-09-08T13:55:05;30.50;80.50
18160;DHT22;9205;52.032;4.314;2023-09-08T13:57:33;30.50;99.90
18160;DHT22;9205;52.032;4.314;2023-09-08T14:00:03;30.60;99.90
18160;DHT22;9205;52.032;4.314;2023-09-08T14:02:35;30.40;1.00
18160;DHT22;9205;52.032;4.314;2023-09-08T14:05:03;30.30;1.00
18160;DHT22;9205;52.032;4.314;2023-09-08T14:07:31;30.20;1.00
18160;DHT22;9205;52.032;4.314;2023-09-08T14:09:58;30.20;1.00
18160;DHT22;9205;52.032;4.314;2023-09-08T14:12:27;30.00;1.00
18160;DHT22;9205;52.032;4.314;2023-09-08T14:14:54;30.00;1.00
18160;DHT22;9205;52.032;4.314;2023-09-08T14:17:23;30.10;1.00
18160;DHT22;9205;52.032;4.314;2023-09-08T14:19:50;30.00;1.00
18160;DHT22;9205;52.032;4.314;2023-09-08T14:22:17;30.00;99.90
18160;DHT22;9205;52.032;4.314;2023-09-08T14:24:44;29.90;1.00
18160;DHT22;9205;52.032;4.314;2023-09-08T14:27:12;29.90;1.00
18160;DHT22;9205;52.032;4.314;2023-09-08T14:29:39;29.80;1.00
18160;DHT22;9205;52.032;4.314;2023-09-08T14:32:06;29.80;99.90
18160;DHT22;9205;52.032;4.314;2023-09-08T14:34:35;29.60;99.90
18160;DHT22;9205;52.032;4.314;2023-09-08T14:37:03;29.40;1.00
18160;DHT22;9205;52.032;4.314;2023-09-08T14:39:30;29.20;1.00
18160;DHT22;9205;52.032;4.314;2023-09-08T14:41:57;29.10;1.00
18160;DHT22;9205;52.032;4.314;2023-09-08T14:44:24;29.00;1.00
18160;DHT22;9205;52.032;4.314;2023-09-08T14:46:52;28.90;1.00
18160;DHT22;9205;52.032;4.314;2023-09-08T14:49:19;28.90;1.00
18160;DHT22;9205;52.032;4.314;2023-09-08T14:51:48;29.00;1.00
18160;DHT22;9205;52.032;4.314;2023-09-08T14:54:15;28.80;1.00
18160;DHT22;9205;52.032;4.314;2023-09-08T14:56:42;28.50;1.00
18160;DHT22;9205;52.032;4.314;2023-09-08T14:59:09;28.50;1.00
18160;DHT22;9205;52.032;4.314;2023-09-08T15:01:37;28.50;1.00
18160;DHT22;9205;52.032;4.314;2023-09-08T15:04:06;28.50;1.00
18160;DHT22;9205;52.032;4.314;2023-09-08T15:06:33;28.50;1.00
18160;DHT22;9205;52.032;4.314;2023-09-08T15:09:02;28.40;1.00
18160;DHT22;9205;52.032;4.314;2023-09-08T15:11:30;28.40;1.00
18160;DHT22;9205;52.032;4.314;2023-09-08T15:13:58;28.40;12.20
18160;DHT22;9205;52.032;4.314;2023-09-08T15:16:25;28.50;99.90
18160;DHT22;9205;52.032;4.314;2023-09-08T15:18:53;28.40;99.90
18160;DHT22;9205;52.032;4.314;2023-09-08T15:21:20;28.30;99.90
18160;DHT22;9205;52.032;4.314;2023-09-08T15:23:51;28.20;99.90
18160;DHT22;9205;52.032;4.314;2023-09-08T15:26:20;28.20;99.90
18160;DHT22;9205;52.032;4.314;2023-09-08T15:28:47;28.20;99.90
18160;DHT22;9205;52.032;4.314;2023-09-08T15:31:16;28.20;1.00
18160;DHT22;9205;52.032;4.314;2023-09-08T15:33:43;28.10;1.00
18160;DHT22;9205;52.032;4.314;2023-09-08T15:36:10;28.00;1.00
18160;DHT22;9205;52.032;4.314;2023-09-08T15:38:38;27.90;1.00
18160;DHT22;9205;52.032;4.314;2023-09-08T15:41:16;27.80;1.00
18160;DHT22;9205;52.032;4.314;2023-09-08T15:43:47;27.80;99.90
18160;DHT22;9205;52.032;4.314;2023-09-08T15:46:17;27.60;99.90
18160;DHT22;9205;52.032;4.314;2023-09-08T15:48:45;27.50;99.90
18160;DHT22;9205;52.032;4.314;2023-09-08T15:51:12;27.40;99.90
18160;DHT22;9205;52.032;4.314;2023-09-08T15:53:40;27.30;99.90
18160;DHT22;9205;52.032;4.314;2023-09-08T15:56:10;27.30;99.90
18160;DHT22;9205;52.032;4.314;2023-09-08T15:58:38;27.20;99.90
18160;DHT22;9205;52.032;4.314;2023-09-08T16:01:06;27.00;99.90
18160;DHT22;9205;52.032;4.314;2023-09-08T16:03:34;27.10;99.90
18160;DHT22;9205;52.032;4.314;2023-09-08T16:06:02;27.00;99.90
18160;DHT22;9205;52.032;4.314;2023-09-08T16:08:29;27.00;99.90
18160;DHT22;9205;52.032;4.314;2023-09-08T16:10:59;26.90;99.90
18160;DHT22;9205;52.032;4.314;2023-09-08T16:13:29;26.90;99.90
18160;DHT22;9205;52.032;4.314;2023-09-08T16:15:57;27.00;99.90
18160;DHT22;9205;52.032;4.314;2023-09-08T16:18:26;26.90;99.90